sensor_id;sensor_type;location;lat;lon;timestamp;P1;durP1;ratioP1;P2;durP2;ratioP2
11121;SDS011;5615;49.304;10.576;2022-09-01T00:01:04;12.37;;;11.17;;
11121;SDS011;5615;49.304;10.576;2022-09-01T00:03:37;11.87;;;10.87;;
11121;SDS011;5615;49.304;10.576;2022-09-01T00:06:03;11.13;;;10.13;;
11121;SDS011;5615;49.304;10.576;2022-09-01T00:08:34;12.53;;;11.33;;
11121;SDS011;5615;49.304;10.576;2022-09-01T00:11:00;11.90;;;10.70;;
11121;SDS011;5615;49.304;10.576;2022-09-01T00:13:27;11.30;;;10.27;;
11121;SDS011;5615;49.304;10.576;2022-09-01T00:15:57;11.57;;;10.57;;
11121;SDS011;5615;49.304;10.576;2022-09-01T00:18:25;11.70;;;10.70;;
11121;SDS011;5615;49.304;10.576;2022-09-01T00:20:52;11.95;;;10.85;;
11121;SDS011;5615;49.304;10.576;2022-09-01T00:23:23;12.47;;;11.37;;
11121;SDS011;5615;49.304;10.576;2022-09-01T00:25:49;12.82;;;11.65;;
11121;SDS011;5615;49.304;10.576;2022-09-01T00:28:16;13.00;;;11.90;;
11121;SDS011;5615;49.304;10.576;2022-09-01T00:30:43;12.30;;;11.13;;
11121;SDS011;5615;49.304;10.576;2022-09-01T00:33:10;13.00;;;11.80;;
11121;SDS011;5615;49.304;10.576;2022-09-01T00:35:38;11.87;;;10.77;;
11121;SDS011;5615;49.304;10.576;2022-09-01T00:38:04;12.73;;;11.52;;
11121;SDS011;5615;49.304;10.576;2022-09-01T00:40:31;12.50;;;11.40;;
11121;SDS011;5615;49.304;10.576;2022-09-01T00:42:58;12.80;;;11.60;;
11121;SDS011;5615;49.304;10.576;2022-09-01T00:45:25;13.63;;;12.23;;
11121;SDS011;5615;49.304;10.576;2022-09-01T00:47:52;13.17;;;12.07;;
11121;SDS011;5615;49.304;10.576;2022-09-01T00:50:18;12.33;;;11.23;;
11121;SDS011;5615;49.304;10.576;2022-09-01T00:52:48;13.60;;;12.40;;
11121;SDS011;5615;49.304;10.576;2022-09-01T00:55:20;14.67;;;13.13;;
11121;SDS011;5615;49.304;10.576;2022-09-01T00:57:49;13.63;;;12.37;;
11121;SDS011;5615;49.304;10.576;2022-09-01T01:00:17;14.80;;;13.03;;
11121;SDS011;5615;49.304;10.576;2022-09-01T01:02:46;14.33;;;12.97;;
11121;SDS011;5615;49.304;10.576;2022-09-01T01:05:13;15.27;;;13.67;;
11121;SDS011;5615;49.304;10.576;2022-09-01T01:07:40;13.93;;;12.73;;
11121;SDS011;5615;49.304;10.576;2022-09-01T01:10:10;14.00;;;12.60;;
11121;SDS011;5615;49.304;10.576;2022-09-01T01:12:39;13.60;;;12.20;;
11121;SDS011;5615;49.304;10.576;2022-09-01T01:15:08;13.97;;;12.63;;
11121;SDS011;5615;49.304;10.576;2022-09-01T01:17:36;12.70;;;11.47;;
11121;SDS011;5615;49.304;10.576;2022-09-01T01:20:03;12.70;;;11.50;;
11121;SDS011;5615;49.304;10.576;2022-09-01T01:22:53;13.13;;;11.73;;
11121;SDS011;5615;49.304;10.576;2022-09-01T01:25:33;12.70;;;11.43;;
11121;SDS011;5615;49.304;10.576;2022-09-01T01:28:02;12.37;;;11.27;;
11121;SDS011;5615;49.304;10.576;2022-09-01T01:30:30;12.87;;;11.67;;
11121;SDS011;5615;49.304;10.576;2022-09-01T01:33:01;12.40;;;11.27;;
11121;SDS011;5615;49.304;10.576;2022-09-01T01:35:28;13.23;;;11.93;;
11121;SDS011;5615;49.304;10.576;2022-09-01T01:37:58;12.53;;;11.43;;
11121;SDS011;5615;49.304;10.576;2022-09-01T01:40:26;13.00;;;11.83;;
11121;SDS011;5615;49.304;10.576;2022-09-01T01:42:55;13.37;;;12.17;;
11121;SDS011;5615;49.304;10.576;2022-09-01T01:45:25;11.50;;;10.50;;
11121;SDS011;5615;49.304;10.576;2022-09-01T01:47:52;13.37;;;12.17;;
11121;SDS011;5615;49.304;10.576;2022-09-01T01:50:20;13.87;;;12.53;;
11121;SDS011;5615;49.304;10.576;2022-09-01T01:52:48;14.80;;;13.30;;
11121;SDS011;5615;49.304;10.576;2022-09-01T01:55:15;14.20;;;12.90;;
11121;SDS011;5615;49.304;10.576;2022-09-01T01:57:43;15.57;;;13.33;;
11121;SDS011;5615;49.304;10.576;2022-09-01T02:00:15;14.57;;;13.17;;
11121;SDS011;5615;49.304;10.576;2022-09-01T02:02:44;15.60;;;14.13;;
11121;SDS011;5615;49.304;10.576;2022-09-01T02:05:16;15.50;;;14.10;;
11121;SDS011;5615;49.304;10.576;2022-09-01T02:07:46;15.07;;;13.57;;
11121;SDS011;5615;49.304;10.576;2022-09-01T02:10:12;17.67;;;15.03;;
11121;SDS011;5615;49.304;10.576;2022-09-01T02:12:39;15.93;;;14.43;;
11121;SDS011;5615;49.304;10.576;2022-09-01T02:15:07;14.63;;;13.23;;
11121;SDS011;5615;49.304;10.576;2022-09-01T02:17:38;15.83;;;14.03;;
11121;SDS011;5615;49.304;10.576;2022-09-01T02:20:07;16.53;;;15.00;;
11121;SDS011;5615;49.304;10.576;2022-09-01T02:22:34;16.83;;;15.23;;
11121;SDS011;5615;49.304;10.576;2022-09-01T02:25:03;16.50;;;14.70;;
11121;SDS011;5615;49.304;10.576;2022-09-01T02:27:30;16.20;;;14.70;;
11121;SDS011;5615;49.304;10.576;2022-09-01T02:29:59;18.23;;;16.43;;
11121;SDS011;5615;49.304;10.576;2022-09-01T02:32:26;18.10;;;16.20;;
11121;SDS011;5615;49.304;10.576;2022-09-01T02:34:54;19.10;;;17.13;;
11121;SDS011;5615;49.304;10.576;2022-09-01T02:37:25;17.50;;;15.87;;
11121;SDS011;5615;49.304;10.576;2022-09-01T02:39:53;19.57;;;17.23;;
11121;SDS011;5615;49.304;10.576;2022-09-01T02:42:22;20.33;;;17.53;;
11121;SDS011;5615;49.304;10.576;2022-09-01T02:44:51;20.13;;;18.00;;
11121;SDS011;5615;49.304;10.576;2022-09-01T02:47:19;18.47;;;16.57;;
11121;SDS011;5615;49.304;10.576;2022-09-01T02:49:47;19.27;;;16.40;;
11121;SDS011;5615;49.304;10.576;2022-09-01T02:52:16;18.17;;;16.47;;
11121;SDS011;5615;49.304;10.576;2022-09-01T02:54:44;20.83;;;18.70;;
11121;SDS011;5615;49.304;10.576;2022-09-01T02:57:15;20.47;;;18.27;;
11121;SDS011;5615;49.304;10.576;2022-09-01T02:59:42;18.33;;;16.53;;
11121;SDS011;5615;49.304;10.576;2022-09-01T03:02:09;19.90;;;16.37;;
11121;SDS011;5615;49.304;10.576;2022-09-01T03:04:36;18.20;;;16.40;;
11121;SDS011;5615;49.304;10.576;2022-09-01T03:07:03;18.20;;;16.37;;
11121;SDS011;5615;49.304;10.576;2022-09-01T03:09:32;19.07;;;17.07;;
11121;SDS011;5615;49.304;10.576;2022-09-01T03:11:59;19.87;;;17.63;;
11121;SDS011;5615;49.304;10.576;2022-09-01T03:14:26;20.93;;;16.97;;
11121;SDS011;5615;49.304;10.576;2022-09-01T03:16:54;18.10;;;16.20;;
11121;SDS011;5615;49.304;10.576;2022-09-01T03:19:21;18.37;;;16.60;;
11121;SDS011;5615;49.304;10.576;2022-09-01T03:21:48;17.80;;;16.03;;
11121;SDS011;5615;49.304;10.576;2022-09-01T03:24:15;18.13;;;16.17;;
11121;SDS011;5615;49.304;10.576;2022-09-01T03:26:45;19.90;;;17.80;;
11121;SDS011;5615;49.304;10.576;2022-09-01T03:29:14;18.50;;;16.67;;
11121;SDS011;5615;49.304;10.576;2022-09-01T03:31:41;18.77;;;16.80;;
11121;SDS011;5615;49.304;10.576;2022-09-01T03:34:07;19.70;;;17.63;;
11121;SDS011;5615;49.304;10.576;2022-09-01T03:36:36;18.33;;;16.53;;
11121;SDS011;5615;49.304;10.576;2022-09-01T03:39:03;19.20;;;17.30;;
11121;SDS011;5615;49.304;10.576;2022-09-01T03:41:34;18.60;;;16.80;;
11121;SDS011;5615;49.304;10.576;2022-09-01T03:44:02;19.37;;;17.43;;
11121;SDS011;5615;49.304;10.576;2022-09-01T03:46:29;19.47;;;17.60;;
11121;SDS011;5615;49.304;10.576;2022-09-01T03:48:57;19.50;;;17.60;;
11121;SDS011;5615;49.304;10.576;2022-09-01T03:51:26;20.93;;;18.47;;
11121;SDS011;5615;49.304;10.576;2022-09-01T03:53:55;20.17;;;18.13;;
11121;SDS011;5615;49.304;10.576;2022-09-01T03:56:23;20.63;;;18.50;;
11121;SDS011;5615;49.304;10.576;2022-09-01T03:58:52;21.30;;;19.17;;
11121;SDS011;5615;49.304;10.576;2022-09-01T04:01:21;20.30;;;18.30;;
11121;SDS011;5615;49.304;10.576;2022-09-01T04:03:48;22.87;;;19.33;;
11121;SDS011;5615;49.304;10.576;2022-09-01T04:06:17;21.23;;;19.13;;
11121;SDS011;5615;49.304;10.576;2022-09-01T04:08:44;22.83;;;20.43;;
11121;SDS011;5615;49.304;10.576;2022-09-01T04:11:12;21.43;;;18.90;;
11121;SDS011;5615;49.304;10.576;2022-09-01T04:13:47;21.67;;;19.47;;
11121;SDS011;5615;49.304;10.576;2022-09-01T04:16:18;21.17;;;19.17;;
11121;SDS011;5615;49.304;10.576;2022-09-01T04:19:06;23.30;;;20.83;;
11121;SDS011;5615;49.304;10.576;2022-09-01T04:21:40;23.37;;;20.97;;
11121;SDS011;5615;49.304;10.576;2022-09-01T04:24:08;22.47;;;20.20;;
11121;SDS011;5615;49.304;10.576;2022-09-01T04:26:36;23.00;;;20.60;;
11121;SDS011;5615;49.304;10.576;2022-09-01T04:29:03;22.23;;;19.87;;
11121;SDS011;5615;49.304;10.576;2022-09-01T04:31:30;21.47;;;19.37;;
11121;SDS011;5615;49.304;10.576;2022-09-01T04:33:57;20.97;;;18.90;;
11121;SDS011;5615;49.304;10.576;2022-09-01T04:36:26;20.67;;;18.67;;
11121;SDS011;5615;49.304;10.576;2022-09-01T04:38:57;19.67;;;17.67;;
11121;SDS011;5615;49.304;10.576;2022-09-01T04:41:25;20.40;;;18.27;;
11121;SDS011;5615;49.304;10.576;2022-09-01T04:43:55;21.43;;;19.23;;
11121;SDS011;5615;49.304;10.576;2022-09-01T04:46:23;24.60;;;21.37;;
11121;SDS011;5615;49.304;10.576;2022-09-01T04:48:53;21.73;;;19.60;;
11121;SDS011;5615;49.304;10.576;2022-09-01T04:51:21;21.53;;;19.43;;
11121;SDS011;5615;49.304;10.576;2022-09-01T04:53:53;21.40;;;19.23;;
11121;SDS011;5615;49.304;10.576;2022-09-01T04:56:21;21.07;;;18.97;;
11121;SDS011;5615;49.304;10.576;2022-09-01T04:58:50;20.60;;;18.50;;
11121;SDS011;5615;49.304;10.576;2022-09-01T05:01:19;22.20;;;19.23;;
11121;SDS011;5615;49.304;10.576;2022-09-01T05:03:50;21.73;;;18.50;;
11121;SDS011;5615;49.304;10.576;2022-09-01T05:06:26;21.70;;;19.50;;
11121;SDS011;5615;49.304;10.576;2022-09-01T05:08:54;20.70;;;18.50;;
11121;SDS011;5615;49.304;10.576;2022-09-01T05:11:21;19.70;;;17.80;;
11121;SDS011;5615;49.304;10.576;2022-09-01T05:13:49;20.17;;;16.87;;
11121;SDS011;5615;49.304;10.576;2022-09-01T05:16:20;18.23;;;16.43;;
11121;SDS011;5615;49.304;10.576;2022-09-01T05:18:48;16.03;;;14.53;;
11121;SDS011;5615;49.304;10.576;2022-09-01T05:21:16;15.90;;;14.40;;
11121;SDS011;5615;49.304;10.576;2022-09-01T05:23:46;16.60;;;15.10;;
11121;SDS011;5615;49.304;10.576;2022-09-01T05:26:18;15.00;;;13.47;;
11121;SDS011;5615;49.304;10.576;2022-09-01T05:28:48;16.13;;;13.60;;
11121;SDS011;5615;49.304;10.576;2022-09-01T05:31:18;14.43;;;13.10;;
11121;SDS011;5615;49.304;10.576;2022-09-01T05:33:45;13.40;;;12.20;;
11121;SDS011;5615;49.304;10.576;2022-09-01T05:36:14;13.13;;;11.93;;
11121;SDS011;5615;49.304;10.576;2022-09-01T05:38:43;15.10;;;13.47;;
11121;SDS011;5615;49.304;10.576;2022-09-01T05:41:12;12.93;;;11.53;;
11121;SDS011;5615;49.304;10.576;2022-09-01T05:43:42;12.63;;;11.33;;
11121;SDS011;5615;49.304;10.576;2022-09-01T05:46:11;13.83;;;11.23;;
11121;SDS011;5615;49.304;10.576;2022-09-01T05:48:40;12.43;;;10.60;;
11121;SDS011;5615;49.304;10.576;2022-09-01T05:51:07;13.07;;;10.77;;
11121;SDS011;5615;49.304;10.576;2022-09-01T05:53:35;11.63;;;10.25;;
11121;SDS011;5615;49.304;10.576;2022-09-01T05:56:04;10.73;;;9.67;;
11121;SDS011;5615;49.304;10.576;2022-09-01T05:58:33;10.55;;;9.55;;
11121;SDS011;5615;49.304;10.576;2022-09-01T06:01:03;10.48;;;9.38;;
11121;SDS011;5615;49.304;10.576;2022-09-01T06:03:30;9.70;;;8.70;;
11121;SDS011;5615;49.304;10.576;2022-09-01T06:06:00;9.82;;;8.93;;
11121;SDS011;5615;49.304;10.576;2022-09-01T06:08:29;10.57;;;9.57;;
11121;SDS011;5615;49.304;10.576;2022-09-01T06:10:56;9.85;;;8.95;;
11121;SDS011;5615;49.304;10.576;2022-09-01T06:13:22;10.70;;;9.57;;
11121;SDS011;5615;49.304;10.576;2022-09-01T06:15:49;10.55;;;9.55;;
11121;SDS011;5615;49.304;10.576;2022-09-01T06:18:19;10.13;;;9.13;;
11121;SDS011;5615;49.304;10.576;2022-09-01T06:20:47;10.15;;;9.15;;
11121;SDS011;5615;49.304;10.576;2022-09-01T06:23:14;12.98;;;8.77;;
11121;SDS011;5615;49.304;10.576;2022-09-01T06:25:42;12.95;;;9.50;;
11121;SDS011;5615;49.304;10.576;2022-09-01T06:28:11;9.27;;;8.48;;
11121;SDS011;5615;49.304;10.576;2022-09-01T06:30:38;9.40;;;8.52;;
11121;SDS011;5615;49.304;10.576;2022-09-01T06:33:06;10.32;;;8.85;;
11121;SDS011;5615;49.304;10.576;2022-09-01T06:35:36;9.30;;;8.38;;
11121;SDS011;5615;49.304;10.576;2022-09-01T06:38:04;9.45;;;8.65;;
11121;SDS011;5615;49.304;10.576;2022-09-01T06:40:32;9.27;;;8.48;;
11121;SDS011;5615;49.304;10.576;2022-09-01T06:43:00;10.93;;;9.00;;
11121;SDS011;5615;49.304;10.576;2022-09-01T06:45:32;10.30;;;9.40;;
11121;SDS011;5615;49.304;10.576;2022-09-01T06:48:01;8.85;;;8.05;;
11121;SDS011;5615;49.304;10.576;2022-09-01T06:50:28;9.90;;;9.00;;
11121;SDS011;5615;49.304;10.576;2022-09-01T06:52:56;9.32;;;8.40;;
11121;SDS011;5615;49.304;10.576;2022-09-01T06:55:34;9.32;;;8.48;;
11121;SDS011;5615;49.304;10.576;2022-09-01T06:58:02;9.02;;;8.10;;
11121;SDS011;5615;49.304;10.576;2022-09-01T07:00:31;9.98;;;9.02;;
11121;SDS011;5615;49.304;10.576;2022-09-01T07:03:02;10.27;;;9.27;;
11121;SDS011;5615;49.304;10.576;2022-09-01T07:05:33;12.27;;;9.20;;
11121;SDS011;5615;49.304;10.576;2022-09-01T07:08:03;10.55;;;9.02;;
11121;SDS011;5615;49.304;10.576;2022-09-01T07:10:32;10.25;;;9.20;;
11121;SDS011;5615;49.304;10.576;2022-09-01T07:12:59;9.82;;;8.43;;
11121;SDS011;5615;49.304;10.576;2022-09-01T07:15:26;13.10;;;9.75;;
11121;SDS011;5615;49.304;10.576;2022-09-01T07:17:56;10.85;;;9.57;;
11121;SDS011;5615;49.304;10.576;2022-09-01T07:20:23;10.27;;;9.23;;
11121;SDS011;5615;49.304;10.576;2022-09-01T07:22:53;9.43;;;8.50;;
11121;SDS011;5615;49.304;10.576;2022-09-01T07:25:23;10.82;;;9.50;;
11121;SDS011;5615;49.304;10.576;2022-09-01T07:27:49;9.07;;;8.27;;
11121;SDS011;5615;49.304;10.576;2022-09-01T07:30:17;12.98;;;9.07;;
11121;SDS011;5615;49.304;10.576;2022-09-01T07:32:45;9.85;;;8.85;;
11121;SDS011;5615;49.304;10.576;2022-09-01T07:35:13;9.73;;;8.93;;
11121;SDS011;5615;49.304;10.576;2022-09-01T07:37:42;9.23;;;8.32;;
11121;SDS011;5615;49.304;10.576;2022-09-01T07:40:09;10.13;;;9.23;;
11121;SDS011;5615;49.304;10.576;2022-09-01T07:42:39;9.50;;;8.60;;
11121;SDS011;5615;49.304;10.576;2022-09-01T07:45:06;12.50;;;9.20;;
11121;SDS011;5615;49.304;10.576;2022-09-01T07:47:35;10.77;;;9.13;;
11121;SDS011;5615;49.304;10.576;2022-09-01T07:50:02;9.20;;;7.90;;
11121;SDS011;5615;49.304;10.576;2022-09-01T07:52:32;8.07;;;7.38;;
11121;SDS011;5615;49.304;10.576;2022-09-01T07:55:00;9.68;;;7.93;;
11121;SDS011;5615;49.304;10.576;2022-09-01T07:57:27;9.00;;;8.10;;
11121;SDS011;5615;49.304;10.576;2022-09-01T07:59:56;9.45;;;8.20;;
11121;SDS011;5615;49.304;10.576;2022-09-01T08:02:22;8.45;;;7.60;;
11121;SDS011;5615;49.304;10.576;2022-09-01T08:04:51;7.95;;;7.25;;
11121;SDS011;5615;49.304;10.576;2022-09-01T08:07:19;7.97;;;7.35;;
11121;SDS011;5615;49.304;10.576;2022-09-01T08:09:46;8.52;;;7.30;;
11121;SDS011;5615;49.304;10.576;2022-09-01T08:12:12;7.70;;;7.03;;
11121;SDS011;5615;49.304;10.576;2022-09-01T08:14:39;9.30;;;7.90;;
11121;SDS011;5615;49.304;10.576;2022-09-01T08:17:07;9.63;;;7.80;;
11121;SDS011;5615;49.304;10.576;2022-09-01T08:19:34;8.50;;;7.70;;
11121;SDS011;5615;49.304;10.576;2022-09-01T08:22:01;8.85;;;7.90;;
11121;SDS011;5615;49.304;10.576;2022-09-01T08:24:28;10.18;;;7.95;;
11121;SDS011;5615;49.304;10.576;2022-09-01T08:26:54;8.95;;;7.75;;
11121;SDS011;5615;49.304;10.576;2022-09-01T08:29:21;9.10;;;8.02;;
11121;SDS011;5615;49.304;10.576;2022-09-01T08:31:48;8.48;;;7.70;;
11121;SDS011;5615;49.304;10.576;2022-09-01T08:34:16;8.45;;;7.60;;
11121;SDS011;5615;49.304;10.576;2022-09-01T08:36:43;7.93;;;7.22;;
11121;SDS011;5615;49.304;10.576;2022-09-01T08:39:10;9.82;;;7.45;;
11121;SDS011;5615;49.304;10.576;2022-09-01T08:41:40;8.98;;;8.07;;
11121;SDS011;5615;49.304;10.576;2022-09-01T08:44:11;9.30;;;7.95;;
11121;SDS011;5615;49.304;10.576;2022-09-01T08:46:44;8.02;;;7.32;;
11121;SDS011;5615;49.304;10.576;2022-09-01T08:49:12;9.02;;;7.95;;
11121;SDS011;5615;49.304;10.576;2022-09-01T08:51:43;9.85;;;8.00;;
11121;SDS011;5615;49.304;10.576;2022-09-01T08:54:17;8.65;;;7.57;;
11121;SDS011;5615;49.304;10.576;2022-09-01T08:56:49;8.48;;;7.68;;
11121;SDS011;5615;49.304;10.576;2022-09-01T08:59:19;9.02;;;8.13;;
11121;SDS011;5615;49.304;10.576;2022-09-01T09:01:47;8.98;;;8.07;;
11121;SDS011;5615;49.304;10.576;2022-09-01T09:04:24;7.88;;;7.18;;
11121;SDS011;5615;49.304;10.576;2022-09-01T09:06:59;8.43;;;7.30;;
11121;SDS011;5615;49.304;10.576;2022-09-01T09:09:34;8.05;;;6.80;;
11121;SDS011;5615;49.304;10.576;2022-09-01T09:12:15;7.47;;;6.60;;
11121;SDS011;5615;49.304;10.576;2022-09-01T09:15:01;7.18;;;6.57;;
11121;SDS011;5615;49.304;10.576;2022-09-01T09:17:35;8.02;;;7.32;;
11121;SDS011;5615;49.304;10.576;2022-09-01T09:20:05;8.32;;;6.80;;
11121;SDS011;5615;49.304;10.576;2022-09-01T09:22:34;5.82;;;5.32;;
11121;SDS011;5615;49.304;10.576;2022-09-01T09:25:01;8.80;;;6.10;;
11121;SDS011;5615;49.304;10.576;2022-09-01T09:27:33;6.97;;;5.53;;
11121;SDS011;5615;49.304;10.576;2022-09-01T09:30:02;5.40;;;5.00;;
11121;SDS011;5615;49.304;10.576;2022-09-01T09:32:42;5.75;;;5.25;;
11121;SDS011;5615;49.304;10.576;2022-09-01T09:35:20;5.85;;;4.93;;
11121;SDS011;5615;49.304;10.576;2022-09-01T09:37:51;6.13;;;5.60;;
11121;SDS011;5615;49.304;10.576;2022-09-01T09:40:19;5.57;;;4.97;;
11121;SDS011;5615;49.304;10.576;2022-09-01T09:43:01;6.20;;;5.32;;
11121;SDS011;5615;49.304;10.576;2022-09-01T09:45:31;7.70;;;5.63;;
11121;SDS011;5615;49.304;10.576;2022-09-01T09:48:00;6.03;;;5.43;;
11121;SDS011;5615;49.304;10.576;2022-09-01T09:50:32;5.60;;;5.10;;
11121;SDS011;5615;49.304;10.576;2022-09-01T09:53:13;11.20;;;6.00;;
11121;SDS011;5615;49.304;10.576;2022-09-01T09:55:51;6.78;;;5.75;;
11121;SDS011;5615;49.304;10.576;2022-09-01T09:58:21;6.28;;;5.53;;
11121;SDS011;5615;49.304;10.576;2022-09-01T10:01:00;5.60;;;5.10;;
11121;SDS011;5615;49.304;10.576;2022-09-01T10:03:41;7.00;;;6.40;;
11121;SDS011;5615;49.304;10.576;2022-09-01T10:06:12;6.90;;;6.30;;
11121;SDS011;5615;49.304;10.576;2022-09-01T10:08:56;6.70;;;6.20;;
11121;SDS011;5615;49.304;10.576;2022-09-01T10:11:25;8.40;;;5.68;;
11121;SDS011;5615;49.304;10.576;2022-09-01T10:13:55;6.22;;;5.75;;
11121;SDS011;5615;49.304;10.576;2022-09-01T10:16:24;7.40;;;5.40;;
11121;SDS011;5615;49.304;10.576;2022-09-01T10:18:55;7.18;;;5.53;;
11121;SDS011;5615;49.304;10.576;2022-09-01T10:21:25;7.25;;;6.00;;
11121;SDS011;5615;49.304;10.576;2022-09-01T10:23:58;6.75;;;5.55;;
11121;SDS011;5615;49.304;10.576;2022-09-01T10:26:30;9.93;;;5.47;;
11121;SDS011;5615;49.304;10.576;2022-09-01T10:29:01;5.57;;;5.05;;
11121;SDS011;5615;49.304;10.576;2022-09-01T10:31:33;6.57;;;5.13;;
11121;SDS011;5615;49.304;10.576;2022-09-01T10:34:00;6.32;;;5.20;;
11121;SDS011;5615;49.304;10.576;2022-09-01T10:36:29;7.63;;;4.97;;
11121;SDS011;5615;49.304;10.576;2022-09-01T10:38:58;5.65;;;5.15;;
11121;SDS011;5615;49.304;10.576;2022-09-01T10:41:45;5.82;;;5.35;;
11121;SDS011;5615;49.304;10.576;2022-09-01T10:44:19;7.28;;;5.22;;
11121;SDS011;5615;49.304;10.576;2022-09-01T10:46:48;6.22;;;4.85;;
11121;SDS011;5615;49.304;10.576;2022-09-01T10:49:19;5.70;;;5.30;;
11121;SDS011;5615;49.304;10.576;2022-09-01T10:52:05;6.22;;;5.00;;
11121;SDS011;5615;49.304;10.576;2022-09-01T10:57:24;5.93;;;4.68;;
11121;SDS011;5615;49.304;10.576;2022-09-01T11:00:14;5.38;;;4.93;;
11121;SDS011;5615;49.304;10.576;2022-09-01T11:06:32;5.90;;;4.00;;
11121;SDS011;5615;49.304;10.576;2022-09-01T11:09:20;4.50;;;4.00;;
11121;SDS011;5615;49.304;10.576;2022-09-01T11:11:54;4.97;;;3.28;;
11121;SDS011;5615;49.304;10.576;2022-09-01T11:14:54;4.88;;;3.78;;
11121;SDS011;5615;49.304;10.576;2022-09-01T11:17:22;4.32;;;3.92;;
11121;SDS011;5615;49.304;10.576;2022-09-01T11:19:54;3.78;;;3.47;;
11121;SDS011;5615;49.304;10.576;2022-09-01T11:22:28;3.58;;;3.28;;
11121;SDS011;5615;49.304;10.576;2022-09-01T11:28:05;5.28;;;4.40;;
11121;SDS011;5615;49.304;10.576;2022-09-01T11:31:00;6.82;;;3.40;;
11121;SDS011;5615;49.304;10.576;2022-09-01T11:33:45;4.07;;;3.78;;
11121;SDS011;5615;49.304;10.576;2022-09-01T11:36:21;4.03;;;3.63;;
11121;SDS011;5615;49.304;10.576;2022-09-01T11:38:53;5.18;;;3.60;;
11121;SDS011;5615;49.304;10.576;2022-09-01T11:41:25;4.30;;;3.83;;
11121;SDS011;5615;49.304;10.576;2022-09-01T11:43:59;4.68;;;4.13;;
11121;SDS011;5615;49.304;10.576;2022-09-01T11:46:28;4.20;;;3.90;;
11121;SDS011;5615;49.304;10.576;2022-09-01T11:48:59;6.03;;;4.57;;
11121;SDS011;5615;49.304;10.576;2022-09-01T11:51:36;4.25;;;3.85;;
11121;SDS011;5615;49.304;10.576;2022-09-01T11:54:09;4.95;;;4.40;;
11121;SDS011;5615;49.304;10.576;2022-09-01T11:56:36;5.50;;;4.10;;
11121;SDS011;5615;49.304;10.576;2022-09-01T11:59:04;4.85;;;4.28;;
11121;SDS011;5615;49.304;10.576;2022-09-01T12:01:32;4.30;;;4.00;;
11121;SDS011;5615;49.304;10.576;2022-09-01T12:04:17;6.18;;;4.63;;
11121;SDS011;5615;49.304;10.576;2022-09-01T12:06:50;4.75;;;4.22;;
11121;SDS011;5615;49.304;10.576;2022-09-01T12:09:20;4.78;;;4.30;;
11121;SDS011;5615;49.304;10.576;2022-09-01T12:11:47;4.45;;;4.03;;
11121;SDS011;5615;49.304;10.576;2022-09-01T12:14:20;4.63;;;4.22;;
11121;SDS011;5615;49.304;10.576;2022-09-01T12:16:55;4.80;;;4.38;;
11121;SDS011;5615;49.304;10.576;2022-09-01T12:19:25;4.40;;;4.05;;
11121;SDS011;5615;49.304;10.576;2022-09-01T12:21:55;7.00;;;4.20;;
11121;SDS011;5615;49.304;10.576;2022-09-01T12:24:24;4.78;;;4.38;;
11121;SDS011;5615;49.304;10.576;2022-09-01T12:26:52;5.13;;;3.92;;
11121;SDS011;5615;49.304;10.576;2022-09-01T12:29:24;4.82;;;4.32;;
11121;SDS011;5615;49.304;10.576;2022-09-01T12:31:51;4.40;;;4.00;;
11121;SDS011;5615;49.304;10.576;2022-09-01T12:34:25;4.32;;;3.88;;
11121;SDS011;5615;49.304;10.576;2022-09-01T12:37:01;4.35;;;3.92;;
11121;SDS011;5615;49.304;10.576;2022-09-01T12:39:32;4.63;;;4.18;;
11121;SDS011;5615;49.304;10.576;2022-09-01T12:42:01;4.32;;;3.97;;
11121;SDS011;5615;49.304;10.576;2022-09-01T12:44:32;4.38;;;3.97;;
11121;SDS011;5615;49.304;10.576;2022-09-01T12:47:01;4.53;;;4.13;;
11121;SDS011;5615;49.304;10.576;2022-09-01T12:49:35;4.43;;;4.03;;
11121;SDS011;5615;49.304;10.576;2022-09-01T12:52:05;4.07;;;3.78;;
11121;SDS011;5615;49.304;10.576;2022-09-01T12:54:37;4.60;;;4.20;;
11121;SDS011;5615;49.304;10.576;2022-09-01T12:57:04;4.93;;;3.88;;
11121;SDS011;5615;49.304;10.576;2022-09-01T12:59:33;4.53;;;3.92;;
11121;SDS011;5615;49.304;10.576;2022-09-01T13:04:51;3.92;;;3.40;;
11121;SDS011;5615;49.304;10.576;2022-09-01T13:07:18;4.00;;;3.70;;
11121;SDS011;5615;49.304;10.576;2022-09-01T13:09:44;5.18;;;3.97;;
11121;SDS011;5615;49.304;10.576;2022-09-01T13:12:14;5.40;;;3.90;;
11121;SDS011;5615;49.304;10.576;2022-09-01T13:14:44;4.72;;;3.90;;
11121;SDS011;5615;49.304;10.576;2022-09-01T13:17:11;4.22;;;3.83;;
11121;SDS011;5615;49.304;10.576;2022-09-01T13:19:37;3.92;;;3.63;;
11121;SDS011;5615;49.304;10.576;2022-09-01T13:22:04;5.15;;;3.67;;
11121;SDS011;5615;49.304;10.576;2022-09-01T13:24:31;5.13;;;4.32;;
11121;SDS011;5615;49.304;10.576;2022-09-01T13:26:58;3.80;;;3.50;;
11121;SDS011;5615;49.304;10.576;2022-09-01T13:29:24;3.90;;;3.53;;
11121;SDS011;5615;49.304;10.576;2022-09-01T13:31:52;4.43;;;3.90;;
11121;SDS011;5615;49.304;10.576;2022-09-01T13:34:19;4.30;;;3.90;;
11121;SDS011;5615;49.304;10.576;2022-09-01T13:36:46;5.00;;;4.10;;
11121;SDS011;5615;49.304;10.576;2022-09-01T13:39:13;3.88;;;3.58;;
11121;SDS011;5615;49.304;10.576;2022-09-01T13:41:39;3.47;;;3.03;;
11121;SDS011;5615;49.304;10.576;2022-09-01T13:44:06;7.15;;;4.00;;
11121;SDS011;5615;49.304;10.576;2022-09-01T13:46:35;4.10;;;3.70;;
11121;SDS011;5615;49.304;10.576;2022-09-01T13:49:03;4.97;;;3.90;;
11121;SDS011;5615;49.304;10.576;2022-09-01T13:51:30;3.58;;;3.33;;
11121;SDS011;5615;49.304;10.576;2022-09-01T13:53:57;4.10;;;3.53;;
11121;SDS011;5615;49.304;10.576;2022-09-01T13:56:23;4.05;;;3.65;;
11121;SDS011;5615;49.304;10.576;2022-09-01T13:58:50;6.43;;;4.15;;
11121;SDS011;5615;49.304;10.576;2022-09-01T14:01:16;6.10;;;3.85;;
11121;SDS011;5615;49.304;10.576;2022-09-01T14:03:43;3.97;;;3.53;;
11121;SDS011;5615;49.304;10.576;2022-09-01T14:06:11;3.63;;;3.33;;
11121;SDS011;5615;49.304;10.576;2022-09-01T14:08:38;3.55;;;3.25;;
11121;SDS011;5615;49.304;10.576;2022-09-01T14:11:04;3.63;;;3.33;;
11121;SDS011;5615;49.304;10.576;2022-09-01T14:13:31;4.03;;;3.72;;
11121;SDS011;5615;49.304;10.576;2022-09-01T14:15:59;3.80;;;3.50;;
11121;SDS011;5615;49.304;10.576;2022-09-01T14:18:26;3.25;;;3.05;;
11121;SDS011;5615;49.304;10.576;2022-09-01T14:20:56;4.65;;;3.67;;
11121;SDS011;5615;49.304;10.576;2022-09-01T14:23:26;4.07;;;3.22;;
11121;SDS011;5615;49.304;10.576;2022-09-01T14:25:53;3.70;;;3.40;;
11121;SDS011;5615;49.304;10.576;2022-09-01T14:28:20;4.13;;;3.83;;
11121;SDS011;5615;49.304;10.576;2022-09-01T14:30:48;4.22;;;3.90;;
11121;SDS011;5615;49.304;10.576;2022-09-01T14:33:16;5.07;;;3.85;;
11121;SDS011;5615;49.304;10.576;2022-09-01T14:35:48;5.35;;;3.80;;
11121;SDS011;5615;49.304;10.576;2022-09-01T14:38:15;4.07;;;3.78;;
11121;SDS011;5615;49.304;10.576;2022-09-01T14:40:45;5.47;;;3.85;;
11121;SDS011;5615;49.304;10.576;2022-09-01T14:43:13;5.18;;;3.63;;
11121;SDS011;5615;49.304;10.576;2022-09-01T14:45:39;4.32;;;3.92;;
11121;SDS011;5615;49.304;10.576;2022-09-01T14:48:12;4.05;;;3.75;;
11121;SDS011;5615;49.304;10.576;2022-09-01T14:50:39;4.28;;;3.85;;
11121;SDS011;5615;49.304;10.576;2022-09-01T14:53:08;4.20;;;3.80;;
11121;SDS011;5615;49.304;10.576;2022-09-01T14:55:35;4.22;;;3.85;;
11121;SDS011;5615;49.304;10.576;2022-09-01T14:58:03;4.63;;;4.00;;
11121;SDS011;5615;49.304;10.576;2022-09-01T15:00:30;3.78;;;3.47;;
11121;SDS011;5615;49.304;10.576;2022-09-01T15:02:59;6.32;;;3.60;;